Time;durP1;ratioP1;P1;durP2;ratioP2;P2;SDS_P1;SDS_P2;PMS_P1;PMS_P2;Temp;Humidity;BMP_temperature;BMP_pressure;BME280_temperature;BME280_humidity;BME280_pressure;Samples;Min_cycle;Max_cycle;Signal;HPM_P1;HPM_P2
2021/11/29 00:01:44;;;;;;;20.25;5.63;;;;;;;15.59;98.60;98767.44;5092190;28;20035;-73
2021/11/29 00:04:10;;;;;;;20.02;5.55;;;;;;;15.55;98.02;98758.81;5091787;28;20466;-74
2021/11/29 00:06:36;;;;;;;30.52;7.38;;;;;;;15.50;98.49;98774.47;5091958;28;20023;-73
2021/11/29 00:09:03;;;;;;;21.42;6.32;;;;;;;15.46;98.96;98779.72;5092222;28;20027;-72
2021/11/29 00:11:28;;;;;;;24.83;6.18;;;;;;;15.41;98.64;98771.97;5089208;28;20058;-72
2021/11/29 00:13:54;;;;;;;27.05;7.13;;;;;;;15.35;98.48;98754.69;5083499;28;20462;-70
2021/11/29 00:16:19;;;;;;;27.33;6.70;;;;;;;15.29;98.37;98736.56;5091131;28;20020;-72
2021/11/29 00:18:45;;;;;;;19.98;6.93;;;;;;;14.97;98.30;98685.75;5091189;28;20031;-70
2021/11/29 00:21:12;;;;;;;30.10;6.55;;;;;;;15.28;98.25;98744.38;5067646;28;20044;-71
2021/11/29 00:23:38;;;;;;;23.23;6.65;;;;;;;15.23;96.92;98718.41;5091425;28;20493;-72
2021/11/29 00:26:04;;;;;;;27.80;7.72;;;;;;;15.37;96.73;98729.53;5091760;28;20024;-71
2021/11/29 00:28:29;;;;;;;29.25;7.22;;;;;;;15.40;96.01;98720.81;5089815;28;20036;-73
2021/11/29 00:30:55;;;;;;;18.45;5.70;;;;;;;15.42;95.47;98728.63;5090204;28;20044;-73
2021/11/29 00:33:21;;;;;;;28.50;5.70;;;;;;;15.15;94.98;98676.91;5089459;28;20020;-72
2021/11/29 00:35:47;;;;;;;22.05;6.63;;;;;;;15.18;93.94;98663.03;5088077;28;20024;-71
2021/11/29 00:38:12;;;;;;;28.77;7.40;;;;;;;15.59;93.92;98728.44;5090277;28;20027;-71
2021/11/29 00:40:39;;;;;;;28.65;7.22;;;;;;;15.59;93.90;98734.50;5091428;28;20094;-74
2021/11/29 00:43:06;;;;;;;28.88;7.25;;;;;;;15.57;93.72;98738.84;5091781;28;20103;-73
2021/11/29 00:45:31;;;;;;;29.13;6.90;;;;;;;15.46;93.10;98718.16;5053022;28;20130;-71
2021/11/29 00:47:57;;;;;;;23.08;6.40;;;;;;;15.51;93.81;98725.91;5090627;28;20467;-72
2021/11/29 00:50:23;;;;;;;26.33;6.60;;;;;;;15.19;93.67;98638.75;5091158;28;20020;-72
2021/11/29 00:52:49;;;;;;;25.42;5.93;;;;;;;15.57;93.87;98705.03;5078175;28;20110;-70
2021/11/29 00:55:17;;;;;;;31.80;6.80;;;;;;;15.57;93.87;98712.84;5070879;28;20041;-70
2021/11/29 00:57:43;;;;;;;29.95;7.00;;;;;;;15.04;93.73;98630.25;5078563;28;20440;-69
2021/11/29 01:00:13;;;;;;;22.65;6.22;;;;;;;15.54;93.93;98710.28;5076001;28;20028;-70
2021/11/29 01:02:38;;;;;;;27.15;7.85;;;;;;;15.49;93.98;98688.69;5071266;28;20054;-69
2021/11/29 01:05:05;;;;;;;34.95;7.82;;;;;;;15.49;94.05;98675.69;5071154;28;20024;-71
2021/11/29 01:07:31;;;;;;;30.20;7.80;;;;;;;15.56;94.18;98679.91;5071569;28;20037;-70
2021/11/29 01:09:57;;;;;;;28.80;7.45;;;;;;;15.06;93.94;98591.22;5071627;28;20025;-75
2021/11/29 01:12:22;;;;;;;33.33;8.57;;;;;;;15.25;93.38;98576.28;5071647;28;20029;-69
2021/11/29 01:14:48;;;;;;;31.88;7.45;;;;;;;15.77;93.31;98657.97;5052467;28;20501;-69
2021/11/29 01:17:13;;;;;;;31.55;7.75;;;;;;;15.65;93.22;98624.31;5071327;28;20043;-72
2021/11/29 01:19:39;;;;;;;19.80;6.38;;;;;;;15.61;93.37;98597.47;5069790;28;20025;-71
2021/11/29 01:22:05;;;;;;;22.20;7.03;;;;;;;15.73;93.58;98606.84;5071728;28;20025;-72
2021/11/29 01:24:31;;;;;;;33.55;8.38;;;;;;;15.60;93.89;98606.19;5071369;28;20025;-71
2021/11/29 01:26:57;;;;;;;42.33;8.43;;;;;;;15.53;94.38;98575.94;5071275;28;20056;-76
2021/11/29 01:29:23;;;;;;;26.45;6.22;;;;;;;15.80;94.52;98615.41;5071194;28;20029;-71
2021/11/29 01:31:49;;;;;;;34.35;8.52;;;;;;;15.75;94.51;98623.31;5071043;28;20090;-72
2021/11/29 01:34:15;;;;;;;36.72;8.77;;;;;;;15.87;93.59;98631.88;5071395;28;20054;-71
2021/11/29 01:36:41;;;;;;;25.05;6.88;;;;;;;15.82;94.20;98621.50;5070988;28;20384;-71
2021/11/29 01:39:07;;;;;;;38.90;7.38;;;;;;;15.68;94.52;98606.06;5071581;28;20035;-72
2021/11/29 01:41:33;;;;;;;25.98;6.28;;;;;;;15.80;94.43;98629.31;5071162;28;20073;-72
2021/11/29 01:43:59;;;;;;;25.45;6.95;;;;;;;15.92;93.93;98624.84;5071066;28;20040;-73
2021/11/29 01:46:24;;;;;;;28.00;6.65;;;;;;;15.87;94.30;98609.28;5070585;28;20028;-70
2021/11/29 01:48:51;;;;;;;31.27;6.85;;;;;;;15.62;93.31;98567.97;5071317;28;20062;-72
2021/11/29 01:51:16;;;;;;;29.58;7.70;;;;;;;15.85;92.61;98590.25;5071168;28;20025;-72
2021/11/29 01:53:43;;;;;;;27.65;7.57;;;;;;;15.85;92.95;98557.28;5070850;28;20466;-74
2021/11/29 01:56:08;;;;;;;31.80;7.13;;;;;;;15.71;93.31;98538.38;5071056;28;20468;-71
2021/11/29 01:58:37;;;;;;;21.75;6.80;;;;;;;16.01;93.66;98570.03;5070922;28;20100;-72
2021/11/29 02:01:13;;;;;;;26.65;8.00;;;;;;;15.51;93.85;98500.53;5052952;28;20160;-72
2021/11/29 02:03:39;;;;;;;37.08;9.57;;;;;;;15.93;94.14;98553.69;5070972;28;20028;-71
2021/11/29 02:06:05;;;;;;;30.90;8.45;;;;;;;16.09;93.86;98560.38;5071375;28;20074;-70
2021/11/29 02:08:30;;;;;;;24.95;6.88;;;;;;;16.19;93.30;98558.47;5070669;28;20025;-71
2021/11/29 02:10:56;;;;;;;46.83;8.98;;;;;;;16.20;93.48;98513.34;5071050;28;20044;-72
2021/11/29 02:13:22;;;;;;;29.80;8.25;;;;;;;16.20;93.89;98510.75;5070807;28;20096;-74
2021/11/29 02:15:52;;;;;;;37.17;10.13;;;;;;;16.20;93.71;98512.47;5070676;28;20111;-70
2021/11/29 02:18:24;;;;;;;29.42;8.82;;;;;;;16.18;93.43;98528.13;5070934;28;20111;-71
2021/11/29 02:21:04;;;;;;;25.33;7.15;;;;;;;16.24;93.58;98540.19;5070864;28;20033;-72
2021/11/29 02:23:30;;;;;;;34.45;8.05;;;;;;;15.72;92.11;98466.41;5070624;28;20501;-71
2021/11/29 02:25:56;;;;;;;24.95;7.50;;;;;;;15.96;91.63;98505.06;5070002;28;20036;-72
2021/11/29 02:28:22;;;;;;;32.58;8.15;;;;;;;15.87;91.13;98506.97;5070794;28;20479;-71
2021/11/29 02:30:48;;;;;;;25.90;5.93;;;;;;;15.72;91.79;98476.81;5070863;28;20082;-72
2021/11/29 02:33:14;;;;;;;20.13;6.60;;;;;;;15.43;92.28;98423.53;5070793;28;20032;-72
2021/11/29 02:35:39;;;;;;;23.60;6.50;;;;;;;15.85;92.77;98487.03;5070724;28;20405;-69
2021/11/29 02:38:06;;;;;;;27.40;7.32;;;;;;;15.48;92.92;98408.69;5070582;28;20024;-71
2021/11/29 02:40:34;;;;;;;32.05;8.20;;;;;;;15.71;94.10;98465.53;5069460;28;20028;-72
2021/11/29 02:43:00;;;;;;;31.42;8.95;;;;;;;15.75;94.51;98467.22;5078709;28;20102;-70
2021/11/29 02:45:27;;;;;;;36.28;7.78;;;;;;;15.75;95.22;98466.34;5090849;28;20139;-71
2021/11/29 02:47:53;;;;;;;25.50;8.30;;;;;;;15.69;96.29;98449.09;5083396;28;20521;-71
2021/11/29 02:50:19;;;;;;;24.02;6.82;;;;;;;15.66;96.78;98447.41;5073458;28;20056;-71
2021/11/29 02:52:45;;;;;;;23.98;8.02;;;;;;;15.60;98.13;98447.50;5073242;28;20139;-71
2021/11/29 02:55:12;;;;;;;28.52;8.18;;;;;;;15.56;98.66;98456.22;5072864;28;20784;-71
2021/11/29 02:57:37;;;;;;;30.73;7.50;;;;;;;15.41;99.71;98441.72;5073258;28;20032;-72
2021/11/29 03:00:06;;;;;;;33.53;8.75;;;;;;;15.24;100.00;98429.00;5073409;28;20437;-70
2021/11/29 03:02:32;;;;;;;26.10;7.95;;;;;;;15.13;100.00;98410.09;5073503;28;20039;-74
2021/11/29 03:04:58;;;;;;;34.45;8.52;;;;;;;14.93;100.00;98372.28;5074042;28;20020;-70
2021/11/29 03:07:24;;;;;;;45.38;10.15;;;;;;;15.25;100.00;98445.44;5073382;28;20028;-71
2021/11/29 03:09:50;;;;;;;37.47;9.10;;;;;;;15.31;100.00;98420.19;5073727;28;20406;-72
2021/11/29 03:12:16;;;;;;;54.08;11.55;;;;;;;15.32;100.00;98413.28;5073809;28;20036;-74
2021/11/29 03:14:42;;;;;;;43.20;10.80;;;;;;;15.22;100.00;98396.97;5055874;28;20111;-76
2021/11/29 03:17:08;;;;;;;56.65;10.63;;;;;;;15.32;100.00;98413.28;5088511;28;20143;-73
2021/11/29 03:19:36;;;;;;;45.65;12.57;;;;;;;15.34;100.00;98393.34;5073251;28;20029;-70
2021/11/29 03:22:05;;;;;;;51.05;11.80;;;;;;;15.40;100.00;98411.41;5073474;28;20029;-75
2021/11/29 03:24:30;;;;;;;47.90;11.60;;;;;;;15.13;100.00;98368.53;5030940;28;20064;-70
2021/11/29 03:26:56;;;;;;;47.83;12.50;;;;;;;14.92;100.00;98307.34;5031135;28;20072;-71
2021/11/29 03:29:27;;;;;;;50.03;11.32;;;;;;;15.43;100.00;98387.13;5031003;28;20158;-71
2021/11/29 03:31:54;;;;;;;49.95;11.77;;;;;;;15.43;100.00;98382.75;5030901;28;20115;-75
2021/11/29 03:34:21;;;;;;;58.13;13.75;;;;;;;15.42;100.00;98377.59;5030769;28;20049;-73
2021/11/29 03:36:49;;;;;;;64.32;14.32;;;;;;;15.46;100.00;98382.69;5030759;28;20118;-71
2021/11/29 03:39:19;;;;;;;56.70;12.43;;;;;;;15.44;100.00;98378.41;5030713;28;20049;-72
2021/11/29 03:41:47;;;;;;;67.65;12.05;;;;;;;15.35;100.00;98363.81;5030770;28;20168;-69
2021/11/29 03:44:13;;;;;;;62.95;13.15;;;;;;;15.46;100.00;98393.09;5030627;28;20077;-72
2021/11/29 03:46:40;;;;;;;58.28;14.15;;;;;;;15.62;100.00;98385.91;5014053;28;20041;-72
2021/11/29 03:49:05;;;;;;;60.00;13.63;;;;;;;15.37;100.00;98336.06;5030433;28;20025;-72
2021/11/29 03:51:31;;;;;;;57.03;12.00;;;;;;;15.64;100.00;98381.53;5030880;28;20632;-71
2021/11/29 03:53:57;;;;;;;54.25;13.52;;;;;;;15.76;100.00;98398.66;5030420;28;20050;-71
2021/11/29 03:56:22;;;;;;;71.60;15.07;;;;;;;15.76;100.00;98393.47;5031431;28;20419;-70
2021/11/29 03:58:48;;;;;;;67.22;14.43;;;;;;;15.69;100.00;98374.50;5032665;28;20029;-72
2021/11/29 04:01:14;;;;;;;59.65;13.40;;;;;;;15.75;100.00;98364.88;5031709;28;20033;-72
2021/11/29 04:03:40;;;;;;;67.13;15.02;;;;;;;15.79;100.00;98366.56;5032812;28;20049;-72
2021/11/29 04:06:05;;;;;;;65.25;14.07;;;;;;;15.09;100.00;98239.50;5032790;28;20064;-71
2021/11/29 04:08:31;;;;;;;59.70;13.93;;;;;;;15.66;100.00;98342.50;5032423;28;20450;-72
2021/11/29 04:10:57;;;;;;;75.90;14.60;;;;;;;15.81;100.00;98370.84;5032706;28;20034;-71
2021/11/29 04:13:22;;;;;;;63.50;13.52;;;;;;;15.76;100.00;98369.22;5032567;28;20129;-72
2021/11/29 04:15:48;;;;;;;71.65;15.63;;;;;;;15.35;100.00;98289.31;5032723;28;20041;-72
2021/11/29 04:18:13;;;;;;;70.07;16.50;;;;;;;15.59;100.00;98335.69;5032075;28;20535;-72
2021/11/29 04:20:39;;;;;;;62.28;13.95;;;;;;;15.65;100.00;98353.78;5032444;28;20033;-70
2021/11/29 04:23:04;;;;;;;73.15;15.30;;;;;;;15.63;100.00;98358.16;5013604;28;20044;-70
2021/11/29 04:25:39;;;;;;;61.28;14.55;;;;;;;15.25;100.00;98297.28;5032600;28;20087;-70
2021/11/29 04:28:05;;;;;;;63.13;14.32;;;;;;;15.67;100.00;98365.88;5032191;28;20116;-72
2021/11/29 04:30:30;;;;;;;74.05;15.10;;;;;;;15.79;100.00;98374.38;5032453;28;20112;-69
2021/11/29 04:32:57;;;;;;;66.15;14.65;;;;;;;15.82;100.00;98363.94;5031845;28;20427;-71
2021/11/29 04:35:24;;;;;;;71.72;14.45;;;;;;;15.81;100.00;98360.44;5047529;28;20117;-72
2021/11/29 04:37:50;;;;;;;73.65;15.35;;;;;;;15.88;100.00;98363.81;5032073;28;20037;-70
2021/11/29 04:40:16;;;;;;;69.30;13.40;;;;;;;15.87;100.00;98356.88;5031919;28;20025;-69
2021/11/29 04:42:41;;;;;;;83.72;15.45;;;;;;;15.92;100.00;98352.44;5029251;28;20095;-72
2021/11/29 04:45:08;;;;;;;64.85;14.27;;;;;;;16.00;100.00;98352.31;5031811;28;20033;-70
2021/11/29 04:47:34;;;;;;;73.53;16.20;;;;;;;15.98;100.00;98341.09;5012534;28;20515;-70
2021/11/29 04:49:59;;;;;;;73.85;15.40;;;;;;;16.01;100.00;98341.88;5029674;28;20041;-69
2021/11/29 04:52:25;;;;;;;78.38;16.27;;;;;;;16.16;100.00;98340.72;5027929;28;20037;-69
2021/11/29 04:54:51;;;;;;;75.25;16.30;;;;;;;16.23;100.00;98332.78;5048666;28;20031;-71
2021/11/29 04:57:16;;;;;;;77.60;17.02;;;;;;;15.73;100.00;98244.41;5048591;28;20025;-70
2021/11/29 04:59:42;;;;;;;76.07;14.20;;;;;;;16.12;100.00;98305.19;5048400;28;20025;-70
2021/11/29 05:02:07;;;;;;;91.53;17.45;;;;;;;16.23;100.00;98324.97;5050905;28;20041;-70
2021/11/29 05:04:33;;;;;;;75.60;16.25;;;;;;;16.22;100.00;98321.50;5048398;28;20100;-77
2021/11/29 05:06:59;;;;;;;67.05;13.10;;;;;;;16.16;100.00;98300.78;5048409;28;20546;-70
2021/11/29 05:09:24;;;;;;;57.38;12.50;;;;;;;16.15;100.00;98296.50;5051569;28;20037;-70
2021/11/29 05:11:50;;;;;;;81.32;16.65;;;;;;;15.98;100.00;98255.19;5061579;28;20107;-74
2021/11/29 05:14:15;;;;;;;65.70;16.15;;;;;;;16.33;100.00;98296.09;5049087;28;20438;-69
2021/11/29 05:16:41;;;;;;;81.43;17.80;;;;;;;16.26;100.00;98272.81;5048471;28;20040;-72
2021/11/29 05:19:08;;;;;;;79.00;18.38;;;;;;;16.16;100.00;98260.03;5048971;28;20571;-69
2021/11/29 05:21:34;;;;;;;56.97;14.10;;;;;;;16.27;100.00;98271.94;5048900;28;20107;-74
2021/11/29 05:24:00;;;;;;;78.25;16.55;;;;;;;15.92;100.00;98213.69;5049071;28;20029;-70
2021/11/29 05:26:27;;;;;;;73.07;18.10;;;;;;;16.29;100.00;98268.41;5051302;28;20037;-70
2021/11/29 05:28:53;;;;;;;78.95;16.42;;;;;;;16.31;100.00;98274.44;5051019;28;20056;-71
2021/11/29 05:31:19;;;;;;;79.63;14.77;;;;;;;15.85;100.00;98210.38;5008768;28;20148;-73
2021/11/29 05:33:45;;;;;;;79.50;17.00;;;;;;;16.26;100.00;98275.44;5009499;28;20526;-71
2021/11/29 05:36:11;;;;;;;77.63;18.38;;;;;;;15.61;100.00;98176.13;5009259;28;20575;-71
2021/11/29 05:38:38;;;;;;;58.22;14.70;;;;;;;16.19;100.00;98277.31;5009470;28;20141;-71
2021/11/29 05:41:04;;;;;;;82.20;17.27;;;;;;;16.22;100.00;98266.81;5009319;28;20056;-70
2021/11/29 05:43:29;;;;;;;97.95;18.60;;;;;;;16.20;100.00;98271.22;5009265;28;20046;-71
2021/11/29 05:45:57;;;;;;;84.38;17.15;;;;;;;15.79;100.00;98192.25;5009428;28;20502;-72
2021/11/29 05:48:23;;;;;;;77.05;17.25;;;;;;;16.14;100.00;98253.97;5009034;28;20456;-73
2021/11/29 05:50:48;;;;;;;76.70;17.20;;;;;;;16.17;100.00;98263.47;5009011;28;20037;-70
2021/11/29 05:53:14;;;;;;;83.60;18.02;;;;;;;16.16;100.00;98256.53;4998653;28;20500;-73
2021/11/29 05:55:39;;;;;;;78.63;16.98;;;;;;;16.11;100.00;98253.19;5006473;28;20499;-72
2021/11/29 05:58:05;;;;;;;72.30;17.35;;;;;;;16.18;100.00;98262.59;5008904;28;20400;-70
2021/11/29 06:00:30;;;;;;;67.55;14.43;;;;;;;16.09;100.00;98255.81;5008739;28;20033;-74
2021/11/29 06:02:56;;;;;;;71.00;16.48;;;;;;;16.04;100.00;98249.88;5009208;28;20069;-73
2021/11/29 06:05:24;;;;;;;66.68;15.02;;;;;;;15.73;100.00;98195.81;5009179;28;20034;-74
2021/11/29 06:07:49;;;;;;;74.72;13.55;;;;;;;16.10;100.00;98270.56;5014391;28;20463;-73
2021/11/29 06:10:15;;;;;;;69.55;15.18;;;;;;;16.12;100.00;98267.91;5032154;28;20098;-71
2021/11/29 06:12:43;;;;;;;64.95;18.95;;;;;;;16.04;100.00;98264.59;5051050;28;20108;-73
2021/11/29 06:15:09;;;;;;;71.68;16.77;;;;;;;15.96;100.00;98249.16;5050982;28;20108;-73
2021/11/29 06:17:35;;;;;;;78.85;14.75;;;;;;;16.05;100.00;98258.53;5051184;28;20059;-72
2021/11/29 06:20:01;;;;;;;69.72;17.50;;;;;;;15.74;100.00;98212.28;5052343;28;20025;-73
2021/11/29 06:22:27;;;;;;;41.78;11.23;;;;;;;16.10;100.00;98280.09;5054549;28;20392;-73
2021/11/29 06:24:52;;;;;;;71.03;16.05;;;;;;;15.72;100.00;98227.09;5019511;28;20112;-74
2021/11/29 06:27:18;;;;;;;74.97;14.93;;;;;;;16.20;100.00;98292.06;5054427;28;20441;-73
2021/11/29 06:29:44;;;;;;;67.18;16.52;;;;;;;16.10;100.00;98260.16;5048228;28;20421;-75
2021/11/29 06:32:11;;;;;;;64.00;13.73;;;;;;;16.17;100.00;98272.16;5034757;28;20029;-72
2021/11/29 06:34:36;;;;;;;65.90;14.38;;;;;;;16.29;100.00;98275.38;5040903;28;20057;-73
2021/11/29 06:37:02;;;;;;;66.50;15.63;;;;;;;16.33;100.00;98283.06;5054184;28;20064;-73
2021/11/29 06:39:30;;;;;;;67.93;14.68;;;;;;;15.45;100.00;98131.38;5054275;28;20479;-72
2021/11/29 06:41:55;;;;;;;82.15;16.95;;;;;;;16.32;100.00;98280.50;5054336;28;20029;-72
2021/11/29 06:44:21;;;;;;;79.20;16.67;;;;;;;16.31;100.00;98268.38;5053944;28;20114;-73
2021/11/29 06:46:47;;;;;;;70.78;16.35;;;;;;;16.39;100.00;98289.06;5054140;28;20036;-72
2021/11/29 06:49:12;;;;;;;80.63;17.45;;;;;;;16.47;100.00;98284.53;5054066;28;20500;-73
2021/11/29 06:51:38;;;;;;;58.95;12.93;;;;;;;16.51;100.00;98291.41;5054047;28;20029;-71
2021/11/29 06:54:04;;;;;;;61.42;16.52;;;;;;;16.09;100.00;98208.97;5084853;28;20040;-74
2021/11/29 06:56:30;;;;;;;74.70;16.38;;;;;;;16.58;100.00;98285.13;5088062;28;20043;-72
2021/11/29 06:58:55;;;;;;;83.25;16.75;;;;;;;16.51;100.00;98267.97;5092072;28;20486;-72
2021/11/29 07:01:21;;;;;;;61.17;15.10;;;;;;;16.21;100.00;98200.03;5094119;28;20032;-72
2021/11/29 07:03:49;;;;;;;74.93;16.70;;;;;;;16.79;100.00;98275.13;5074150;28;20028;-71
2021/11/29 07:06:15;;;;;;;72.05;17.73;;;;;;;16.87;100.00;98278.38;5073039;28;20028;-70
2021/11/29 07:08:40;;;;;;;77.50;17.27;;;;;;;16.97;100.00;98294.69;5054170;28;20503;-71
2021/11/29 07:11:06;;;;;;;66.25;17.52;;;;;;;17.06;100.00;98297.09;5073145;28;20044;-72
2021/11/29 07:13:31;;;;;;;72.88;16.17;;;;;;;17.13;100.00;98288.22;5072531;28;20392;-72
2021/11/29 07:15:57;;;;;;;68.28;14.05;;;;;;;17.22;100.00;98287.13;5077003;28;20533;-73
2021/11/29 07:18:22;;;;;;;71.40;14.35;;;;;;;17.07;100.00;98249.28;5071820;28;20100;-72
2021/11/29 07:20:48;;;;;;;68.57;16.02;;;;;;;16.89;100.00;98214.06;5073062;28;20146;-74
2021/11/29 07:23:14;;;;;;;72.90;15.65;;;;;;;17.34;100.00;98272.06;5075293;28;20020;-71
2021/11/29 07:25:40;;;;;;;72.00;16.60;;;;;;;17.48;100.00;98290.81;5076586;28;20017;-72
2021/11/29 07:28:05;;;;;;;76.80;16.17;;;;;;;17.56;100.00;98288.88;5072331;28;20047;-71
2021/11/29 07:30:31;;;;;;;72.22;15.52;;;;;;;17.58;99.88;98276.66;5072500;28;20052;-71
2021/11/29 07:32:57;;;;;;;73.68;17.50;;;;;;;17.65;98.34;98266.03;5072858;28;20036;-72
2021/11/29 07:35:26;;;;;;;77.35;16.85;;;;;;;17.82;97.78;98281.22;5072813;28;20403;-72
2021/11/29 07:37:52;;;;;;;89.95;17.10;;;;;;;18.03;94.25;98282.41;5073773;28;20078;-72
2021/11/29 07:40:17;;;;;;;75.18;16.45;;;;;;;18.16;92.67;98277.69;5092029;28;20044;-70
2021/11/29 07:42:43;;;;;;;86.85;17.25;;;;;;;18.23;91.72;98267.00;5093041;28;20024;-72
2021/11/29 07:45:12;;;;;;;66.60;14.43;;;;;;;17.96;88.42;98203.41;5070803;28;20109;-71
2021/11/29 07:47:39;;;;;;;77.38;16.85;;;;;;;18.53;87.96;98277.44;5073163;28;20028;-71
2021/11/29 07:50:07;;;;;;;67.38;14.25;;;;;;;18.69;86.68;98280.44;5072979;28;20074;-72
2021/11/29 07:52:33;;;;;;;72.90;14.98;;;;;;;18.71;83.94;98262.94;5057004;28;20048;-72
2021/11/29 07:55:00;;;;;;;64.30;14.93;;;;;;;18.90;83.09;98273.69;5072470;28;20066;-71
2021/11/29 07:57:26;;;;;;;71.82;13.75;;;;;;;19.04;81.01;98280.22;5071741;28;20025;-71
2021/11/29 07:59:52;;;;;;;75.18;13.85;;;;;;;19.05;79.46;98256.66;5072809;28;20479;-72
2021/11/29 08:02:18;;;;;;;79.00;14.50;;;;;;;19.22;78.10;98277.00;5072947;28;20074;-72
2021/11/29 08:04:43;;;;;;;76.25;13.50;;;;;;;19.29;77.21;98284.63;5073070;28;20463;-72
2021/11/29 08:07:09;;;;;;;58.90;10.82;;;;;;;19.37;75.50;98269.53;5072962;28;20024;-70
2021/11/29 08:09:34;;;;;;;49.05;10.73;;;;;;;19.06;75.51;98239.19;5072141;28;20025;-71
2021/11/29 08:11:59;;;;;;;59.47;10.60;;;;;;;19.42;73.98;98278.09;5072338;28;20414;-72
2021/11/29 08:14:25;;;;;;;54.40;10.48;;;;;;;19.42;73.92;98267.63;5054941;28;20056;-72
2021/11/29 08:16:50;;;;;;;56.38;11.70;;;;;;;19.12;73.56;98219.84;5072697;28;20047;-72
2021/11/29 08:19:16;;;;;;;46.78;8.35;;;;;;;19.65;72.49;98289.50;5072020;28;20601;-71
2021/11/29 08:21:41;;;;;;;47.03;9.52;;;;;;;19.60;71.42;98271.38;5091552;28;20040;-72
2021/11/29 08:24:07;;;;;;;61.97;9.43;;;;;;;19.47;70.67;98247.38;5092427;28;20543;-70
2021/11/29 08:26:34;;;;;;;43.72;9.32;;;;;;;19.79;70.46;98299.47;5092883;28;20020;-70
2021/11/29 08:28:59;;;;;;;38.33;8.00;;;;;;;19.85;69.81;98315.00;5092332;28;20039;-70
2021/11/29 08:31:25;;;;;;;45.40;9.75;;;;;;;19.81;70.52;98302.91;5092622;28;20020;-72
2021/11/29 08:33:50;;;;;;;40.25;8.40;;;;;;;19.60;68.87;98265.25;5092410;28;20476;-71
2021/11/29 08:36:17;;;;;;;55.05;8.93;;;;;;;19.54;68.70;98259.34;5092273;28;20023;-71
2021/11/29 08:38:43;;;;;;;44.08;9.23;;;;;;;19.89;69.03;98314.00;5091594;28;20051;-72
2021/11/29 08:41:09;;;;;;;45.05;8.63;;;;;;;19.86;68.90;98301.88;5092711;28;20450;-72
2021/11/29 08:43:38;;;;;;;45.47;8.10;;;;;;;19.94;68.28;98334.78;5073432;28;20402;-71
2021/11/29 08:46:03;;;;;;;47.80;9.88;;;;;;;19.97;69.16;98313.72;5092470;28;20145;-72
2021/11/29 08:48:29;;;;;;;51.25;8.52;;;;;;;19.98;67.92;98318.06;5091958;28;20474;-71
2021/11/29 08:50:56;;;;;;;43.47;9.32;;;;;;;20.05;68.29;98309.06;5092485;28;20046;-72
2021/11/29 08:53:27;;;;;;;28.23;6.72;;;;;;;20.12;67.25;98301.84;5055729;28;20044;-71
2021/11/29 08:55:54;;;;;;;41.60;7.53;;;;;;;19.71;67.49;98237.81;5073083;28;20040;-72
2021/11/29 08:58:19;;;;;;;46.78;9.40;;;;;;;20.10;66.51;98283.56;5092193;28;20023;-72
2021/11/29 09:00:47;;;;;;;40.25;7.88;;;;;;;20.03;67.20;98268.97;5092367;28;20462;-71
2021/11/29 09:03:13;;;;;;;29.73;7.53;;;;;;;20.28;66.67;98294.25;5091775;28;20106;-69
2021/11/29 09:05:43;;;;;;;31.85;5.85;;;;;;;20.33;65.81;98295.78;5092542;28;20107;-70
2021/11/29 09:08:08;;;;;;;34.63;6.75;;;;;;;20.00;65.38;98245.50;5092031;28;20142;-72
2021/11/29 09:10:34;;;;;;;36.33;7.45;;;;;;;20.29;65.19;98288.13;5091834;28;20050;-73
2021/11/29 09:13:00;;;;;;;39.00;7.93;;;;;;;20.34;65.24;98291.41;5091672;28;20028;-72
2021/11/29 09:15:26;;;;;;;31.30;8.20;;;;;;;20.34;64.55;98279.16;5055918;28;20047;-72
2021/11/29 09:17:53;;;;;;;24.23;6.18;;;;;;;20.30;63.49;98276.69;5073782;28;20034;-70
2021/11/29 09:20:22;;;;;;;29.42;6.18;;;;;;;20.35;63.40;98266.91;5091361;28;20133;-72
2021/11/29 09:22:50;;;;;;;33.78;6.57;;;;;;;20.52;62.48;98285.47;5091398;28;20517;-72
2021/11/29 09:25:17;;;;;;;34.95;7.85;;;;;;;20.65;61.63;98287.59;5055960;28;20046;-72
2021/11/29 09:27:43;;;;;;;23.80;5.68;;;;;;;20.25;60.10;98215.75;5070911;28;20040;-72
2021/11/29 09:30:13;;;;;;;30.88;5.97;;;;;;;20.49;60.54;98267.22;5073461;28;20036;-71
2021/11/29 09:32:39;;;;;;;36.65;6.07;;;;;;;20.40;60.61;98267.59;5092310;28;20021;-71
2021/11/29 09:35:16;;;;;;;28.40;5.88;;;;;;;20.48;60.27;98273.38;5091190;28;20047;-72
2021/11/29 09:37:43;;;;;;;30.33;5.80;;;;;;;20.42;59.08;98275.38;5091614;28;20028;-72
2021/11/29 09:40:14;;;;;;;24.85;6.00;;;;;;;20.27;60.20;98285.53;5091571;28;20093;-72
2021/11/29 09:42:40;;;;;;;20.98;4.72;;;;;;;20.17;59.62;98298.13;5091288;28;20063;-72
2021/11/29 09:45:08;;;;;;;20.88;4.63;;;;;;;20.29;59.47;98275.00;5091299;28;20057;-72
2021/11/29 09:47:34;;;;;;;25.52;5.82;;;;;;;20.43;58.97;98262.22;5090803;28;20027;-72
2021/11/29 09:50:02;;;;;;;26.40;5.43;;;;;;;20.39;58.89;98271.13;5091620;28;20028;-71
2021/11/29 09:52:27;;;;;;;20.35;4.65;;;;;;;20.07;59.10;98225.19;5091285;28;20044;-72
2021/11/29 09:54:53;;;;;;;31.60;5.72;;;;;;;20.62;58.71;98287.72;5092873;28;20075;-70
2021/11/29 09:57:20;;;;;;;29.73;5.53;;;;;;;20.78;57.11;98262.63;5095458;28;20413;-72
2021/11/29 09:59:47;;;;;;;23.33;5.72;;;;;;;20.96;55.12;98300.38;5095344;28;20023;-72
2021/11/29 10:02:14;;;;;;;49.55;5.68;;;;;;;20.35;53.68;98217.97;5095264;28;20050;-72
2021/11/29 10:04:47;;;;;;;25.70;4.85;;;;;;;21.05;53.93;98295.66;5095606;28;20390;-71
2021/11/29 10:07:31;;;;;;;17.13;5.03;;;;;;;20.82;52.71;98294.81;5095618;28;20111;-71
2021/11/29 10:10:09;;;;;;;49.78;8.40;;;;;;;20.47;57.77;98331.09;5095080;28;20024;-71
2021/11/29 10:12:35;;;;;;;22.85;4.75;;;;;;;19.29;63.58;98331.72;5094547;28;20024;-71
2021/11/29 10:15:12;;;;;;;14.07;5.22;;;;;;;18.21;69.11;98368.03;5095554;28;20031;-71
2021/11/29 10:17:38;;;;;;;21.73;4.55;;;;;;;18.00;70.16;98371.25;5095024;28;20165;-72
2021/11/29 10:20:06;;;;;;;18.45;4.82;;;;;;;17.82;71.11;98383.00;5094956;28;20516;-72
2021/11/29 10:22:33;;;;;;;10.48;3.15;;;;;;;17.36;72.51;98351.13;5094895;28;20406;-68
2021/11/29 10:25:12;;;;;;;16.98;4.85;;;;;;;17.07;73.08;98310.97;5075922;28;20032;-71
2021/11/29 10:27:40;;;;;;;8.07;3.15;;;;;;;17.38;73.50;98397.13;5094706;28;20023;-72
2021/11/29 10:30:07;;;;;;;9.85;3.17;;;;;;;17.21;74.08;98413.19;5094965;28;20032;-69
2021/11/29 10:32:43;;;;;;;7.38;2.95;;;;;;;16.93;73.85;98340.81;5059074;28;20067;-70
2021/11/29 10:35:10;;;;;;;12.15;4.25;;;;;;;17.16;74.33;98393.31;5092006;28;20535;-72
2021/11/29 10:37:38;;;;;;;8.85;2.50;;;;;;;17.24;71.87;98407.03;5042462;28;20086;-69
2021/11/29 10:40:10;;;;;;;8.07;2.80;;;;;;;17.07;71.25;98321.41;5073339;28;20040;-70
2021/11/29 10:42:36;;;;;;;12.48;3.83;;;;;;;17.66;69.39;98411.25;5089234;28;20038;-73
2021/11/29 10:45:04;;;;;;;8.80;3.08;;;;;;;17.61;69.86;98425.28;5091641;28;20032;-72
2021/11/29 10:47:32;;;;;;;6.40;2.15;;;;;;;17.71;69.40;98431.13;5039590;28;20054;-69
2021/11/29 10:50:00;;;;;;;8.38;2.35;;;;;;;17.46;70.33;98459.56;5087518;28;20393;-70
2021/11/29 10:52:29;;;;;;;7.63;2.13;;;;;;;17.22;71.42;98430.56;5089440;28;20024;-69
2021/11/29 10:54:56;;;;;;;5.13;1.73;;;;;;;17.13;72.91;98472.47;5093985;28;20127;-72
2021/11/29 10:57:23;;;;;;;5.68;2.15;;;;;;;17.36;72.80;98465.88;5087158;28;20042;-71
2021/11/29 10:59:51;;;;;;;2.70;1.38;;;;;;;17.05;73.31;98457.00;5094236;28;20464;-73
2021/11/29 11:02:30;;;;;;;2.78;1.42;;;;;;;16.99;70.53;98454.53;5090752;28;20115;-69
2021/11/29 11:05:11;;;;;;;6.57;3.40;;;;;;;16.98;71.01;98432.81;5073983;28;20055;-69
2021/11/29 11:07:39;;;;;;;4.88;1.60;;;;;;;17.05;69.80;98450.94;5073933;28;20028;-70
2021/11/29 11:10:14;;;;;;;4.13;2.13;;;;;;;17.25;70.27;98456.56;5074951;28;20033;-71
2021/11/29 11:12:40;;;;;;;5.05;2.17;;;;;;;16.94;69.14;98470.25;5073789;28;20013;-69
2021/11/29 11:15:12;;;;;;;3.58;1.60;;;;;;;16.82;68.67;98460.94;5073924;28;20026;-72
2021/11/29 11:17:38;;;;;;;4.38;2.30;;;;;;;16.76;69.22;98461.06;5073460;28;20024;-73